Time;durP1;ratioP1;P1;durP2;ratioP2;P2;SDS_P1;SDS_P2;PMS_P1;PMS_P2;Temp;Humidity;BMP_temperature;BMP_pressure;BME280_temperature;BME280_humidity;BME280_pressure;Samples;Min_cycle;Max_cycle;Signal;HPM_P1;HPM_P2
2021/05/29 00:01:36;;;;;;;4.60;3.60;;;23.10;51.60;;;;;;5008460;28;20502;-78
2021/05/29 00:04:04;;;;;;;3.90;3.53;;;23.00;51.60;;;;;;5008587;28;20399;-77
2021/05/29 00:06:31;;;;;;;4.33;3.30;;;23.00;51.60;;;;;;5021663;28;20545;-78
2021/05/29 00:09:00;;;;;;;3.77;3.30;;;23.00;51.50;;;;;;5031040;28;20504;-78
2021/05/29 00:11:27;;;;;;;6.30;3.93;;;23.00;51.50;;;;;;5032633;28;20471;-78
2021/05/29 00:13:54;;;;;;;7.17;3.87;;;23.00;51.50;;;;;;5034102;28;20453;-78
2021/05/29 00:16:22;;;;;;;5.00;3.40;;;23.00;51.60;;;;;;5047749;28;20467;-78
2021/05/29 00:18:49;;;;;;;4.33;3.83;;;23.00;51.60;;;;;;5042218;28;20409;-77
2021/05/29 00:21:17;;;;;;;3.93;3.63;;;22.90;51.50;;;;;;5045004;28;20473;-77
2021/05/29 00:23:44;;;;;;;4.27;3.97;;;22.90;51.60;;;;;;5033244;28;20519;-78
2021/05/29 00:26:12;;;;;;;4.37;3.97;;;22.90;51.60;;;;;;5029394;28;20459;-77
2021/05/29 00:28:40;;;;;;;10.90;4.33;;;22.90;51.70;;;;;;5027283;28;20471;-76
2021/05/29 00:31:07;;;;;;;4.30;3.40;;;22.90;51.70;;;;;;5027861;28;20484;-76
2021/05/29 00:33:35;;;;;;;6.17;3.70;;;22.90;52.30;;;;;;5027564;28;20475;-77
2021/05/29 00:36:02;;;;;;;6.80;3.70;;;22.90;51.80;;;;;;5027420;28;20449;-77
2021/05/29 00:38:30;;;;;;;5.03;3.60;;;22.80;51.70;;;;;;5022231;28;20436;-77
2021/05/29 00:40:57;;;;;;;4.03;3.67;;;22.80;51.80;;;;;;5027252;28;20449;-78
2021/05/29 00:43:26;;;;;;;4.67;3.20;;;22.80;51.80;;;;;;5026945;28;20437;-77
2021/05/29 00:45:53;;;;;;;4.53;4.10;;;22.70;51.70;;;;;;5026840;28;20414;-77
2021/05/29 00:48:20;;;;;;;3.90;3.57;;;22.70;51.80;;;;;;5026753;28;20471;-77
2021/05/29 00:50:48;;;;;;;11.90;4.03;;;22.70;51.80;;;;;;5027239;28;20478;-77
2021/05/29 00:53:16;;;;;;;4.03;3.63;;;22.80;51.80;;;;;;5027163;28;20453;-77
2021/05/29 00:55:47;;;;;;;4.63;4.10;;;22.80;51.80;;;;;;5024938;28;20476;-77
2021/05/29 00:58:14;;;;;;;6.27;3.43;;;22.70;51.70;;;;;;5023225;28;20421;-77
2021/05/29 01:00:43;;;;;;;3.80;3.60;;;22.70;51.80;;;;;;5026979;28;20402;-77
2021/05/29 01:06:03;;;;;;;3.90;3.40;;;22.70;51.90;;;;;;5035186;28;20414;-77
2021/05/29 01:09:05;;;;;;;3.90;3.60;;;22.70;51.90;;;;;;5026236;28;20523;-77
2021/05/29 01:12:16;;;;;;;4.20;3.60;;;22.60;51.80;;;;;;5026339;28;20434;-77
2021/05/29 01:15:06;;;;;;;4.00;3.60;;;22.60;51.90;;;;;;5023921;28;20502;-76
2021/05/29 01:28:19;;;;;;;6.17;3.37;;;22.40;52.00;;;;;;5024998;28;20410;-77
2021/05/29 01:31:08;;;;;;;3.70;3.40;;;22.50;52.20;;;;;;5026745;28;20517;-77
2021/05/29 01:33:56;;;;;;;4.30;3.90;;;22.50;52.20;;;;;;5026758;28;20445;-77
2021/05/29 01:37:03;;;;;;;4.50;3.57;;;22.40;52.20;;;;;;5026560;28;20455;-77
2021/05/29 01:39:52;;;;;;;4.00;3.60;;;22.40;52.10;;;;;;5021384;28;20433;-77
2021/05/29 01:42:50;;;;;;;3.43;3.23;;;22.40;52.10;;;;;;5026792;28;20540;-76
2021/05/29 01:45:51;;;;;;;3.83;3.27;;;22.40;52.20;;;;;;5026568;28;20436;-77
2021/05/29 01:48:41;;;;;;;3.73;3.43;;;22.30;52.10;;;;;;5026373;28;20490;-77
2021/05/29 01:51:17;;;;;;;3.50;3.20;;;22.30;52.20;;;;;;5023147;28;20413;-76
2021/05/29 01:54:10;;;;;;;6.23;4.10;;;22.40;52.30;;;;;;5023460;28;20517;-76
2021/05/29 01:56:57;;;;;;;4.23;3.67;;;22.30;52.20;;;;;;5033172;28;20499;-76
2021/05/29 01:59:52;;;;;;;3.27;3.00;;;22.30;52.20;;;;;;5045871;28;20417;-78
2021/05/29 02:05:45;;;;;;;4.40;3.10;;;22.30;52.90;;;;;;5034972;28;20447;-80
2021/05/29 02:08:13;;;;;;;3.50;3.20;;;22.30;52.30;;;;;;5024843;28;20443;-80
2021/05/29 02:10:41;;;;;;;4.07;3.77;;;22.20;52.30;;;;;;5025676;28;20530;-79
2021/05/29 02:13:11;;;;;;;3.30;3.10;;;22.20;52.20;;;;;;5029700;28;20460;-77
2021/05/29 02:15:39;;;;;;;3.63;3.33;;;22.20;52.30;;;;;;5045704;28;20437;-76
2021/05/29 02:18:07;;;;;;;5.00;3.13;;;22.30;52.30;;;;;;5045220;28;20482;-79
2021/05/29 02:20:40;;;;;;;3.37;3.20;;;22.20;52.30;;;;;;5045187;28;20469;-76
2021/05/29 02:23:07;;;;;;;3.43;3.23;;;22.30;52.30;;;;;;5039416;28;20489;-76
2021/05/29 02:25:35;;;;;;;3.77;3.30;;;22.20;52.20;;;;;;5025762;28;20497;-76
2021/05/29 02:28:02;;;;;;;3.67;3.30;;;22.20;52.20;;;;;;5025362;28;20474;-78
2021/05/29 02:30:31;;;;;;;3.50;3.27;;;22.20;52.20;;;;;;5025636;28;20506;-79
2021/05/29 02:32:59;;;;;;;3.20;3.00;;;22.20;52.20;;;;;;5032444;28;20534;-79
2021/05/29 02:35:26;;;;;;;4.80;2.90;;;22.20;52.30;;;;;;5045249;28;20447;-80
2021/05/29 02:37:54;;;;;;;3.73;3.33;;;22.20;52.40;;;;;;5044619;28;20509;-77
2021/05/29 02:40:21;;;;;;;3.93;3.37;;;22.20;52.30;;;;;;5045134;28;20417;-77
2021/05/29 02:42:49;;;;;;;3.63;3.33;;;22.10;52.20;;;;;;5039329;28;20450;-76
2021/05/29 02:45:16;;;;;;;3.87;3.57;;;22.10;52.20;;;;;;5024975;28;20434;-76
2021/05/29 02:47:44;;;;;;;3.33;3.03;;;22.10;52.20;;;;;;5025140;28;20471;-79
2021/05/29 02:50:13;;;;;;;5.90;3.20;;;22.20;52.30;;;;;;5025170;28;20488;-79
2021/05/29 02:52:41;;;;;;;3.60;3.30;;;22.10;52.20;;;;;;5034774;28;20421;-79
2021/05/29 02:55:11;;;;;;;3.47;3.17;;;22.10;52.20;;;;;;5044750;28;20449;-79
2021/05/29 02:57:38;;;;;;;3.50;3.30;;;22.10;52.20;;;;;;5044607;28;20476;-79
2021/05/29 03:00:07;;;;;;;3.10;2.80;;;22.20;52.40;;;;;;5043355;28;20530;-76
2021/05/29 03:02:35;;;;;;;3.60;3.27;;;22.10;52.20;;;;;;5043712;28;20446;-76
2021/05/29 03:05:04;;;;;;;3.40;3.10;;;22.10;52.30;;;;;;5043356;28;20401;-76
2021/05/29 03:07:31;;;;;;;3.40;3.20;;;22.10;52.30;;;;;;5024899;28;20424;-76
2021/05/29 03:10:00;;;;;;;3.50;3.30;;;22.10;52.40;;;;;;5024509;28;20410;-77
2021/05/29 03:12:27;;;;;;;3.33;3.03;;;22.00;52.30;;;;;;5024984;28;20454;-77
2021/05/29 03:14:55;;;;;;;3.00;2.90;;;22.00;52.30;;;;;;5025208;28;20438;-79
2021/05/29 03:17:22;;;;;;;3.13;2.80;;;22.00;52.30;;;;;;5023571;28;20467;-79
2021/05/29 03:19:50;;;;;;;3.17;2.97;;;22.00;52.40;;;;;;5024614;28;20414;-79
2021/05/29 03:22:18;;;;;;;5.27;3.17;;;22.00;52.30;;;;;;5024662;28;20483;-79
2021/05/29 03:24:45;;;;;;;2.90;2.80;;;22.00;52.40;;;;;;5024238;28;20398;-79
2021/05/29 03:27:17;;;;;;;3.63;3.33;;;22.00;52.30;;;;;;5024194;28;20439;-79
2021/05/29 03:29:44;;;;;;;3.43;3.23;;;22.00;52.40;;;;;;5024850;28;20494;-79
2021/05/29 03:32:12;;;;;;;3.47;3.17;;;22.00;52.40;;;;;;5024218;28;20467;-76
2021/05/29 03:34:39;;;;;;;3.60;3.30;;;22.00;52.40;;;;;;5024078;28;20425;-76
2021/05/29 03:37:08;;;;;;;3.37;3.10;;;22.00;52.40;;;;;;5023913;28;20445;-76
2021/05/29 03:39:36;;;;;;;3.47;3.17;;;22.00;52.40;;;;;;5024711;28;20426;-77
2021/05/29 03:42:06;;;;;;;3.80;3.27;;;22.00;52.50;;;;;;5024465;28;20480;-77
2021/05/29 03:44:34;;;;;;;2.97;2.80;;;21.90;52.40;;;;;;5024476;28;20516;-76
2021/05/29 03:47:01;;;;;;;3.17;2.97;;;21.90;52.40;;;;;;5023551;28;20414;-79
2021/05/29 03:49:29;;;;;;;4.50;3.07;;;22.00;52.50;;;;;;5024335;28;20449;-80
2021/05/29 03:51:57;;;;;;;3.27;2.97;;;22.00;52.50;;;;;;5024343;28;20414;-79
2021/05/29 03:54:24;;;;;;;3.87;3.20;;;21.90;52.40;;;;;;5024115;28;20429;-79
2021/05/29 03:56:53;;;;;;;3.40;3.20;;;21.90;52.40;;;;;;5023851;28;20462;-79
2021/05/29 03:59:21;;;;;;;3.40;3.20;;;21.90;52.40;;;;;;5024185;28;20483;-79
2021/05/29 04:01:48;;;;;;;3.17;2.97;;;21.90;52.50;;;;;;5023856;28;20421;-79
2021/05/29 04:04:18;;;;;;;3.30;3.10;;;21.90;52.50;;;;;;5024399;28;20451;-79
2021/05/29 04:06:45;;;;;;;3.77;3.50;;;21.90;52.50;;;;;;5023894;28;20406;-79
2021/05/29 04:09:13;;;;;;;3.33;3.17;;;21.90;52.40;;;;;;5023935;28;20432;-79
2021/05/29 04:11:40;;;;;;;3.53;3.30;;;21.90;52.40;;;;;;5023921;28;20418;-79
2021/05/29 04:14:09;;;;;;;3.77;3.57;;;21.90;52.50;;;;;;5023740;28;20439;-80
2021/05/29 04:16:36;;;;;;;3.43;3.13;;;21.90;52.50;;;;;;5024066;28;20435;-79
2021/05/29 04:19:04;;;;;;;3.23;3.03;;;21.90;52.50;;;;;;5023809;28;20454;-81
2021/05/29 04:21:31;;;;;;;3.27;3.07;;;21.90;52.40;;;;;;5023942;28;20552;-80
2021/05/29 04:23:59;;;;;;;3.00;2.90;;;21.90;52.40;;;;;;5023789;28;20486;-76
2021/05/29 04:26:26;;;;;;;4.07;3.20;;;21.90;52.40;;;;;;5023630;28;20463;-76
2021/05/29 04:28:54;;;;;;;3.40;3.10;;;21.90;52.50;;;;;;5026737;28;20439;-76
2021/05/29 04:31:22;;;;;;;3.10;2.97;;;21.90;52.40;;;;;;5027216;28;20447;-76
2021/05/29 04:33:49;;;;;;;3.20;3.00;;;21.90;52.50;;;;;;5027378;28;20477;-76
2021/05/29 04:36:17;;;;;;;2.87;2.77;;;21.80;52.40;;;;;;5027233;28;20485;-76
2021/05/29 04:38:44;;;;;;;3.37;2.90;;;21.80;52.40;;;;;;5027174;28;20514;-76
2021/05/29 04:41:12;;;;;;;2.70;2.60;;;21.80;52.40;;;;;;5027480;28;20435;-81
2021/05/29 04:43:39;;;;;;;3.30;3.10;;;21.80;52.50;;;;;;5027275;28;20483;-80
2021/05/29 04:46:07;;;;;;;3.13;2.93;;;21.90;52.50;;;;;;5027110;28;20447;-79
2021/05/29 04:48:36;;;;;;;3.17;2.93;;;21.80;52.40;;;;;;5027291;28;20413;-76
2021/05/29 04:51:13;;;;;;;3.57;3.27;;;21.80;52.40;;;;;;5027378;28;20478;-80
2021/05/29 04:53:41;;;;;;;3.40;3.20;;;21.80;52.50;;;;;;5027069;28;20479;-80
2021/05/29 04:56:08;;;;;;;3.50;3.20;;;21.80;52.40;;;;;;5027326;28;20463;-76
2021/05/29 04:58:37;;;;;;;3.87;2.77;;;21.80;52.50;;;;;;5026494;28;20510;-80
2021/05/29 05:01:06;;;;;;;3.77;3.00;;;21.80;52.50;;;;;;5026819;28;20435;-80
2021/05/29 05:03:33;;;;;;;3.20;3.00;;;21.80;52.40;;;;;;5026904;28;20418;-76
2021/05/29 05:06:02;;;;;;;3.23;3.03;;;21.80;52.30;;;;;;5026689;28;20451;-80
2021/05/29 05:08:29;;;;;;;3.37;3.07;;;21.80;52.30;;;;;;5026784;28;20475;-81
2021/05/29 05:10:56;;;;;;;3.37;3.17;;;21.90;52.40;;;;;;5027040;28;20422;-80
2021/05/29 05:13:24;;;;;;;3.17;2.97;;;21.80;52.30;;;;;;5027037;28;20422;-80
2021/05/29 05:15:51;;;;;;;3.93;3.13;;;21.80;52.30;;;;;;5026827;28;20482;-81
2021/05/29 05:18:20;;;;;;;3.50;2.60;;;21.80;52.30;;;;;;5026520;28;20544;-81
2021/05/29 05:20:47;;;;;;;3.17;2.87;;;21.90;52.40;;;;;;5026549;28;20557;-80
2021/05/29 05:23:18;;;;;;;2.77;2.57;;;21.90;52.30;;;;;;5026541;28;20439;-76
2021/05/29 05:25:45;;;;;;;3.17;2.90;;;21.90;52.90;;;;;;5026311;28;20470;-79
2021/05/29 05:28:13;;;;;;;3.00;2.83;;;21.80;52.30;;;;;;5026176;28;20421;-79
2021/05/29 05:30:41;;;;;;;3.10;2.90;;;21.80;52.30;;;;;;5026076;28;20525;-80
2021/05/29 05:33:09;;;;;;;3.27;3.10;;;21.80;52.30;;;;;;5026641;28;20509;-80
2021/05/29 05:35:37;;;;;;;2.83;2.73;;;21.80;52.30;;;;;;5026118;28;20423;-78
2021/05/29 05:38:05;;;;;;;3.10;2.90;;;21.80;52.30;;;;;;5025874;28;20442;-79
2021/05/29 05:40:33;;;;;;;2.80;2.70;;;21.90;52.30;;;;;;5025608;28;20535;-80
2021/05/29 05:43:01;;;;;;;3.17;2.97;;;21.90;52.40;;;;;;5026290;28;20534;-76
2021/05/29 05:45:28;;;;;;;3.23;3.03;;;21.90;52.40;;;;;;5026361;28;20458;-76
2021/05/29 05:47:55;;;;;;;2.50;2.40;;;21.90;52.20;;;;;;5025873;28;20522;-80
2021/05/29 05:50:23;;;;;;;2.90;2.67;;;21.90;52.20;;;;;;5026265;28;20444;-80
2021/05/29 05:52:51;;;;;;;3.30;3.10;;;21.90;52.30;;;;;;5026308;28;20460;-80
2021/05/29 05:55:22;;;;;;;2.87;2.70;;;21.90;52.80;;;;;;5026180;28;20417;-76
2021/05/29 05:57:50;;;;;;;2.90;2.80;;;21.90;52.20;;;;;;5026221;28;20451;-78
2021/05/29 06:00:19;;;;;;;3.17;2.97;;;22.00;52.20;;;;;;5025538;28;20414;-79
2021/05/29 06:02:47;;;;;;;3.10;2.90;;;22.00;52.10;;;;;;5026085;28;20418;-79
2021/05/29 06:05:15;;;;;;;3.70;3.40;;;22.00;52.10;;;;;;5025940;28;20414;-79
2021/05/29 06:07:43;;;;;;;3.40;3.03;;;22.00;52.00;;;;;;5025463;28;20475;-76
2021/05/29 06:10:11;;;;;;;3.40;3.10;;;22.10;52.00;;;;;;5026387;28;20505;-76
2021/05/29 06:12:43;;;;;;;3.17;2.80;;;22.10;52.00;;;;;;5026169;28;20445;-77
2021/05/29 06:18:06;;;;;;;2.87;2.67;;;22.10;52.00;;;;;;5025403;28;20399;-79
2021/05/29 06:20:34;;;;;;;3.47;3.27;;;22.10;51.80;;;;;;5025693;28;20405;-76
2021/05/29 06:23:01;;;;;;;3.10;3.00;;;22.10;51.80;;;;;;5025738;28;20444;-77
2021/05/29 06:25:29;;;;;;;2.43;2.33;;;22.20;52.00;;;;;;5025834;28;20450;-79
2021/05/29 06:27:56;;;;;;;2.93;2.73;;;22.20;51.90;;;;;;5025004;28;20418;-79
2021/05/29 06:30:24;;;;;;;3.00;2.80;;;22.20;51.90;;;;;;5025921;28;20519;-79
2021/05/29 06:32:52;;;;;;;3.23;3.03;;;22.20;51.80;;;;;;5025686;28;20410;-79
2021/05/29 06:35:20;;;;;;;3.33;3.03;;;22.20;51.90;;;;;;5025436;28;20510;-79
2021/05/29 06:37:47;;;;;;;2.80;2.70;;;22.30;51.90;;;;;;5025481;28;20443;-79
2021/05/29 06:40:15;;;;;;;3.27;3.07;;;22.20;51.80;;;;;;5025388;28;20506;-79
2021/05/29 06:42:42;;;;;;;2.80;2.70;;;22.30;51.70;;;;;;5025496;28;20492;-79
2021/05/29 06:45:11;;;;;;;3.23;2.73;;;22.30;51.80;;;;;;5025189;28;20436;-77
2021/05/29 06:47:39;;;;;;;2.77;2.67;;;22.30;51.70;;;;;;5025279;28;20415;-77
2021/05/29 06:50:08;;;;;;;3.10;2.90;;;22.30;51.60;;;;;;5025187;28;20432;-77
2021/05/29 06:52:38;;;;;;;3.13;2.93;;;22.30;51.60;;;;;;5024337;28;20530;-79
2021/05/29 06:58:36;;;;;;;3.03;2.83;;;22.40;51.60;;;;;;5025302;28;20428;-80
2021/05/29 07:00:40;;;;;;;3.03;2.83;;;22.40;51.60;;;;;;5025073;28;20442;-80
2021/05/29 07:03:09;;;;;;;3.10;2.90;;;22.40;51.60;;;;;;5024788;28;20496;-81
2021/05/29 07:05:37;;;;;;;3.10;2.90;;;22.30;51.50;;;;;;5024455;28;20427;-77
2021/05/29 07:08:05;;;;;;;3.17;2.97;;;22.40;51.60;;;;;;5024519;28;20485;-77
2021/05/29 07:10:32;;;;;;;3.47;3.17;;;22.40;51.60;;;;;;5024673;28;20505;-77
2021/05/29 07:13:00;;;;;;;3.40;3.20;;;22.40;51.60;;;;;;5024801;28;20418;-77
2021/05/29 07:15:32;;;;;;;2.60;2.50;;;22.40;51.60;;;;;;5024843;28;20517;-77
2021/05/29 07:18:07;;;;;;;2.73;2.60;;;22.50;51.50;;;;;;5024547;28;20401;-77
2021/05/29 07:20:35;;;;;;;2.93;2.67;;;22.50;51.50;;;;;;5024444;28;20483;-77
2021/05/29 07:23:03;;;;;;;3.50;3.20;;;22.50;51.50;;;;;;5024931;28;20410;-76
2021/05/29 07:25:41;;;;;;;3.23;3.03;;;22.60;51.60;;;;;;5023396;28;20493;-76
2021/05/29 07:28:08;;;;;;;2.90;2.70;;;22.50;51.40;;;;;;5024014;28;20432;-81
2021/05/29 07:30:36;;;;;;;2.80;2.60;;;22.60;51.40;;;;;;5024752;28;20455;-78
2021/05/29 07:33:03;;;;;;;3.00;2.80;;;22.60;51.40;;;;;;5024078;28;20437;-78
2021/05/29 07:35:31;;;;;;;3.10;2.90;;;22.60;51.40;;;;;;5024318;28;20468;-75
2021/05/29 07:37:59;;;;;;;4.03;3.00;;;22.70;51.40;;;;;;5024243;28;20418;-80
2021/05/29 07:40:37;;;;;;;2.83;2.73;;;22.70;51.30;;;;;;5024081;28;20483;-77
2021/05/29 07:43:04;;;;;;;2.53;2.43;;;22.70;51.30;;;;;;5024091;28;20500;-77
2021/05/29 07:45:32;;;;;;;2.80;2.70;;;22.80;51.20;;;;;;5024049;28;20475;-77
2021/05/29 07:48:04;;;;;;;2.90;2.70;;;22.80;51.20;;;;;;5024300;28;20386;-77
2021/05/29 07:50:32;;;;;;;3.07;2.77;;;22.80;51.30;;;;;;5024357;28;20414;-77
2021/05/29 07:53:01;;;;;;;2.80;2.60;;;22.80;51.30;;;;;;5024029;28;20439;-77
2021/05/29 07:55:29;;;;;;;2.97;2.77;;;22.90;51.20;;;;;;5023849;28;20446;-77
2021/05/29 07:57:56;;;;;;;2.67;2.47;;;22.90;51.30;;;;;;5023838;28;20486;-77
2021/05/29 08:00:27;;;;;;;3.07;2.97;;;22.90;51.20;;;;;;5024194;28;20469;-77
2021/05/29 08:02:55;;;;;;;3.10;2.90;;;22.90;51.10;;;;;;5025590;28;20437;-77
2021/05/29 08:05:24;;;;;;;3.00;2.90;;;23.00;51.10;;;;;;5027993;28;20413;-77
2021/05/29 08:07:53;;;;;;;3.37;2.90;;;23.00;51.10;;;;;;5027267;28;20429;-78
2021/05/29 08:10:21;;;;;;;2.77;2.67;;;23.00;51.00;;;;;;5027606;28;20489;-75
2021/05/29 08:12:49;;;;;;;2.97;2.77;;;23.00;51.00;;;;;;5027869;28;20481;-75
2021/05/29 08:15:17;;;;;;;3.07;2.87;;;23.00;51.00;;;;;;5027910;28;20398;-75
2021/05/29 08:17:44;;;;;;;2.93;2.73;;;23.10;51.10;;;;;;5027622;28;20471;-76
2021/05/29 08:20:13;;;;;;;2.90;2.70;;;23.10;50.90;;;;;;5027209;28;20487;-77
2021/05/29 08:22:40;;;;;;;2.67;2.57;;;23.10;50.90;;;;;;5027555;28;20424;-77
2021/05/29 08:25:09;;;;;;;2.70;2.60;;;23.10;50.90;;;;;;5027544;28;20417;-81
2021/05/29 08:27:40;;;;;;;3.13;2.93;;;23.10;50.90;;;;;;5027891;28;20433;-80
2021/05/29 08:30:09;;;;;;;2.70;2.60;;;23.10;50.90;;;;;;5027906;28;20475;-80
2021/05/29 08:32:37;;;;;;;6.03;2.47;;;23.10;50.90;;;;;;5027319;28;20445;-80
2021/05/29 08:35:07;;;;;;;3.30;3.00;;;23.10;50.80;;;;;;5027293;28;20422;-80
2021/05/29 08:37:35;;;;;;;3.27;2.80;;;23.20;50.90;;;;;;5027130;28;20542;-80
2021/05/29 08:40:04;;;;;;;2.93;2.60;;;23.20;50.90;;;;;;5027158;28;21148;-80
2021/05/29 08:42:32;;;;;;;3.13;3.00;;;23.20;50.90;;;;;;5027309;28;20435;-81
2021/05/29 08:45:15;;;;;;;2.60;2.50;;;23.30;50.90;;;;;;5026834;28;20430;-81
2021/05/29 08:47:46;;;;;;;2.83;2.43;;;23.30;50.70;;;;;;5026363;28;20494;-81
2021/05/29 08:50:14;;;;;;;2.53;2.43;;;23.40;50.70;;;;;;5027143;28;20409;-85
2021/05/29 08:52:42;;;;;;;2.70;2.50;;;23.50;50.60;;;;;;5027675;28;20426;-85
2021/05/29 08:55:13;;;;;;;3.17;2.87;;;23.50;50.60;;;;;;5027146;28;20471;-82
2021/05/29 08:57:41;;;;;;;2.73;2.60;;;23.50;50.50;;;;;;5027117;28;20395;-82
2021/05/29 09:00:10;;;;;;;2.90;2.70;;;23.60;50.40;;;;;;5026646;28;20470;-81
2021/05/29 09:02:58;;;;;;;2.83;2.60;;;23.60;50.40;;;;;;5026934;28;20544;-82
2021/05/29 09:05:37;;;;;;;2.90;2.70;;;23.60;50.40;;;;;;5026629;28;20432;-81
2021/05/29 09:08:05;;;;;;;2.87;2.70;;;23.70;50.40;;;;;;5026441;28;20422;-82
2021/05/29 09:10:35;;;;;;;2.70;2.60;;;23.70;50.40;;;;;;5026612;28;20511;-81
2021/05/29 09:13:08;;;;;;;2.93;2.73;;;23.70;50.50;;;;;;5026476;28;20418;-82
2021/05/29 09:15:47;;;;;;;2.77;2.67;;;23.70;50.40;;;;;;5025141;28;20439;-82
2021/05/29 09:18:36;;;;;;;2.60;2.50;;;23.70;50.40;;;;;;5026626;28;20426;-81
2021/05/29 09:21:29;;;;;;;2.60;2.50;;;23.70;50.40;;;;;;5026472;28;20450;-81
2021/05/29 09:23:58;;;;;;;3.27;2.73;;;23.80;50.50;;;;;;5026796;28;20402;-81
2021/05/29 09:26:41;;;;;;;2.50;2.40;;;23.80;50.40;;;;;;5026683;28;20406;-81
2021/05/29 09:29:17;;;;;;;2.80;2.60;;;23.80;50.30;;;;;;5026467;28;20455;-81
2021/05/29 09:31:56;;;;;;;2.77;2.67;;;23.90;50.40;;;;;;5026612;28;20474;-82
2021/05/29 09:34:32;;;;;;;2.93;2.70;;;23.90;50.40;;;;;;5026501;28;20428;-81
2021/05/29 09:37:10;;;;;;;2.63;2.53;;;23.90;50.40;;;;;;5026792;28;20422;-81
2021/05/29 09:39:38;;;;;;;2.57;2.47;;;23.90;50.40;;;;;;5026262;28;20505;-80
2021/05/29 09:42:06;;;;;;;3.03;2.80;;;24.00;50.40;;;;;;5026621;28;20426;-80
2021/05/29 09:44:33;;;;;;;2.83;2.67;;;24.00;50.30;;;;;;5026645;28;20483;-81
2021/05/29 09:47:03;;;;;;;2.77;2.57;;;24.00;50.40;;;;;;5026232;28;20419;-81
2021/05/29 09:49:49;;;;;;;2.83;2.50;;;24.10;50.30;;;;;;5026068;28;20410;-81
2021/05/29 09:52:27;;;;;;;2.93;2.73;;;24.10;50.20;;;;;;5026331;28;20528;-82
2021/05/29 09:54:56;;;;;;;3.00;2.70;;;24.10;50.20;;;;;;5025927;28;20508;-82
2021/05/29 09:57:23;;;;;;;3.07;2.87;;;24.20;50.30;;;;;;5025963;28;20471;-82
2021/05/29 09:59:55;;;;;;;2.83;2.63;;;24.20;50.40;;;;;;5025874;28;20473;-82
2021/05/29 10:02:23;;;;;;;2.87;2.70;;;24.20;50.30;;;;;;5026139;28;20456;-82
2021/05/29 10:04:54;;;;;;;3.50;2.77;;;24.30;50.30;;;;;;5026276;28;20418;-82
2021/05/29 10:07:23;;;;;;;3.23;2.50;;;24.40;50.40;;;;;;5026123;28;20432;-82
2021/05/29 10:09:50;;;;;;;4.23;2.37;;;24.50;50.30;;;;;;5025541;28;20437;-83
2021/05/29 10:12:18;;;;;;;3.00;2.77;;;24.50;50.10;;;;;;5026045;28;20424;-82
2021/05/29 10:14:45;;;;;;;3.00;2.80;;;24.60;50.00;;;;;;5025458;28;20494;-82
2021/05/29 10:17:13;;;;;;;2.93;2.70;;;24.70;49.90;;;;;;5025719;28;20424;-82
2021/05/29 10:19:43;;;;;;;2.50;2.30;;;24.70;49.80;;;;;;5025210;28;20463;-82
2021/05/29 10:22:12;;;;;;;2.23;2.13;;;24.80;49.90;;;;;;5025709;28;20430;-82
2021/05/29 10:24:44;;;;;;;2.87;2.73;;;24.90;49.90;;;;;;5025351;28;20432;-82
2021/05/29 10:27:20;;;;;;;2.70;2.50;;;24.90;49.70;;;;;;5025481;28;20453;-82
2021/05/29 10:29:47;;;;;;;2.40;2.30;;;25.00;49.70;;;;;;5025457;28;20434;-83
2021/05/29 10:32:16;;;;;;;2.40;2.30;;;25.00;49.60;;;;;;5025428;28;20451;-86
2021/05/29 10:34:52;;;;;;;3.10;2.80;;;25.10;49.60;;;;;;5024093;28;20509;-83
2021/05/29 10:37:27;;;;;;;2.80;2.70;;;25.10;49.50;;;;;;5024079;28;20427;-82
2021/05/29 10:39:54;;;;;;;2.67;2.47;;;25.20;49.50;;;;;;5017744;28;20470;-82
2021/05/29 10:43:05;;;;;;;2.60;2.40;;;25.30;49.40;;;;;;5025409;28;20418;-82
2021/05/29 10:45:33;;;;;;;2.67;2.50;;;25.50;49.10;;;;;;5023087;28;20445;-81
2021/05/29 10:48:06;;;;;;;2.27;2.17;;;25.70;49.00;;;;;;5025032;28;20458;-82
2021/05/29 10:51:11;;;;;;;2.70;2.50;;;25.70;48.90;;;;;;5025621;28;20556;-81
2021/05/29 10:53:44;;;;;;;2.37;2.27;;;25.70;48.70;;;;;;5025279;28;20441;-82
2021/05/29 10:56:30;;;;;;;2.57;2.47;;;25.90;49.00;;;;;;5025503;28;20398;-81
2021/05/29 10:58:59;;;;;;;2.27;2.17;;;26.10;48.90;;;;;;5024985;28;20446;-81
2021/05/29 11:02:03;;;;;;;2.53;2.43;;;26.20;48.70;;;;;;5024518;28;20499;-81
2021/05/29 11:04:31;;;;;;;2.40;2.20;;;26.60;49.20;;;;;;4982825;28;20437;-81
2021/05/29 11:07:01;;;;;;;2.40;2.30;;;27.00;48.40;;;;;;5017113;28;20436;-80
2021/05/29 11:09:49;;;;;;;2.60;2.40;;;27.20;47.90;;;;;;5022669;28;20451;-83
2021/05/29 11:12:17;;;;;;;2.33;2.23;;;27.40;47.60;;;;;;5024674;28;20422;-81
2021/05/29 11:14:56;;;;;;;2.03;1.93;;;27.60;47.50;;;;;;5021961;28;20440;-86
2021/05/29 11:17:24;;;;;;;2.40;2.30;;;28.20;47.80;;;;;;5024390;28;20435;-82
2021/05/29 11:20:07;;;;;;;2.07;1.97;;;28.80;46.30;;;;;;5024383;28;20501;-80
2021/05/29 11:22:45;;;;;;;2.17;2.07;;;28.90;45.40;;;;;;5024732;28;20451;-82
2021/05/29 11:25:16;;;;;;;2.37;2.27;;;28.80;45.40;;;;;;5024937;28;20497;-79
2021/05/29 11:27:44;;;;;;;2.50;2.40;;;28.60;45.40;;;;;;5024407;28;20501;-78
2021/05/29 11:30:13;;;;;;;1.90;1.90;;;28.70;45.80;;;;;;5024775;28;20443;-79
2021/05/29 11:32:44;;;;;;;2.40;2.20;;;29.40;44.40;;;;;;5023973;28;20436;-79
2021/05/29 11:35:27;;;;;;;2.30;2.20;;;29.10;44.80;;;;;;5023847;28;20463;-79
2021/05/29 11:38:02;;;;;;;2.00;1.90;;;30.50;45.00;;;;;;5021302;28;20514;-79
2021/05/29 11:40:57;;;;;;;1.77;1.67;;;30.60;42.70;;;;;;5004510;28;20443;-79
2021/05/29 11:43:39;;;;;;;2.10;2.03;;;30.70;42.60;;;;;;5004732;28;20472;-81
2021/05/29 11:46:07;;;;;;;1.70;1.60;;;30.80;42.50;;;;;;5004931;28;20472;-80
2021/05/29 11:48:37;;;;;;;2.30;2.20;;;30.40;42.70;;;;;;5004449;28;20452;-79
2021/05/29 11:51:11;;;;;;;2.00;1.90;;;31.10;43.60;;;;;;5004317;28;20475;-79
2021/05/29 11:53:41;;;;;;;2.00;1.90;;;30.60;42.50;;;;;;5017510;28;20455;-79
2021/05/29 11:56:10;;;;;;;2.20;2.10;;;30.10;43.10;;;;;;5023762;28;20447;-81
2021/05/29 11:58:58;;;;;;;2.37;2.27;;;30.10;43.80;;;;;;5024132;28;20447;-79
2021/05/29 12:01:28;;;;;;;2.30;2.10;;;30.10;43.40;;;;;;5020891;28;20439;-79
2021/05/29 12:03:58;;;;;;;2.13;2.03;;;30.00;44.00;;;;;;5023886;28;20464;-77
2021/05/29 12:06:34;;;;;;;2.90;2.07;;;31.10;45.10;;;;;;5023878;28;20523;-79
2021/05/29 12:09:03;;;;;;;2.07;1.97;;;32.70;42.80;;;;;;5023983;28;20522;-79
2021/05/29 12:11:32;;;;;;;2.03;1.93;;;33.70;41.80;;;;;;5023956;28;20541;-80
2021/05/29 12:14:02;;;;;;;1.80;1.80;;;33.30;39.80;;;;;;5024743;28;20451;-81
2021/05/29 12:16:31;;;;;;;1.73;1.63;;;33.80;40.90;;;;;;5024055;28;20501;-81
2021/05/29 12:18:59;;;;;;;1.83;1.73;;;33.00;39.40;;;;;;5023838;28;20451;-80
2021/05/29 12:21:43;;;;;;;1.83;1.73;;;32.40;40.20;;;;;;5023746;28;20423;-82
2021/05/29 12:24:11;;;;;;;2.00;2.00;;;33.20;41.60;;;;;;5023806;28;20475;-80
2021/05/29 12:26:40;;;;;;;2.40;1.90;;;32.80;40.30;;;;;;5023865;28;20427;-80
2021/05/29 12:29:08;;;;;;;2.20;2.10;;;33.80;40.90;;;;;;5023354;28;20494;-80
2021/05/29 12:31:59;;;;;;;2.00;1.90;;;34.60;40.10;;;;;;5023749;28;20513;-80
2021/05/29 12:34:29;;;;;;;1.77;1.77;;;34.80;38.70;;;;;;5013713;28;20539;-80
2021/05/29 12:37:01;;;;;;;1.67;1.67;;;34.10;38.50;;;;;;5023250;28;20427;-80
2021/05/29 12:39:56;;;;;;;1.80;1.70;;;33.60;39.10;;;;;;5023493;28;20454;-80
2021/05/29 12:42:29;;;;;;;1.77;1.77;;;33.60;39.70;;;;;;4999967;28;20521;-80
2021/05/29 12:45:00;;;;;;;1.60;1.53;;;34.20;40.20;;;;;;5023678;28;20459;-80
2021/05/29 12:47:28;;;;;;;2.07;2.00;;;34.70;39.60;;;;;;5024218;28;20479;-81
2021/05/29 12:49:57;;;;;;;1.73;1.73;;;35.10;39.10;;;;;;5026266;28;20447;-80
2021/05/29 12:52:27;;;;;;;1.40;1.30;;;35.30;38.90;;;;;;5026889;28;20510;-80
2021/05/29 12:54:55;;;;;;;1.70;1.60;;;34.90;38.20;;;;;;5027384;28;20443;-80
2021/05/29 12:57:24;;;;;;;2.03;1.80;;;34.60;38.70;;;;;;5026870;28;20514;-80
2021/05/29 13:00:37;;;;;;;1.90;1.80;;;34.20;38.90;;;;;;5026291;28;20439;-80
2021/05/29 13:09:10;;;;;;;3.67;3.47;;;33.00;38.50;;;;;;5026817;28;20518;-80
2021/05/29 13:11:38;;;;;;;6.07;4.87;;;32.40;38.70;;;;;;5017094;28;20478;-79
2021/05/29 13:14:06;;;;;;;20.03;10.30;;;32.00;40.00;;;;;;5025804;28;20435;-79
2021/05/29 13:16:48;;;;;;;16.43;11.40;;;31.70;40.40;;;;;;5025728;28;20459;-79
2021/05/29 13:19:15;;;;;;;14.48;9.38;;;31.60;40.70;;;;;;5024790;28;20451;-81
2021/05/29 13:21:54;;;;;;;17.20;13.17;;;31.00;41.20;;;;;;5025887;28;20198;-82
2021/05/29 13:24:48;;;;;;;25.67;17.23;;;30.70;42.00;;;;;;5026034;28;20444;-82
2021/05/29 13:27:17;;;;;;;21.60;14.40;;;30.50;42.50;;;;;;5025012;28;20521;-83
2021/05/29 13:29:45;;;;;;;25.57;17.63;;;30.50;43.40;;;;;;5025930;28;20506;-84
2021/05/29 13:32:15;;;;;;;32.40;15.90;;;30.40;43.60;;;;;;5025855;28;20552;-77
2021/05/29 13:34:43;;;;;;;23.90;13.47;;;30.50;43.90;;;;;;5022765;28;20456;-78
2021/05/29 13:37:11;;;;;;;20.43;14.17;;;30.40;43.20;;;;;;5025228;28;20537;-77